createdAt,value
2016-11-23T00:00:31.263Z,0
2016-11-23T00:01:10.108Z,0
2016-11-23T00:01:48.967Z,0
2016-11-23T00:02:27.801Z,0
2016-11-23T00:03:06.626Z,0
2016-11-23T00:03:45.461Z,0
2016-11-23T00:04:24.294Z,0
2016-11-23T00:05:03.127Z,0
2016-11-23T00:05:41.960Z,0
2016-11-23T00:06:20.788Z,0
2016-11-23T00:06:59.622Z,0
2016-11-23T00:07:38.451Z,0
2016-11-23T00:08:17.643Z,0
2016-11-23T00:08:56.479Z,0
2016-11-23T00:09:35.310Z,0
2016-11-23T00:10:14.151Z,0
2016-11-23T00:10:52.979Z,0
2016-11-23T00:11:31.805Z,0
2016-11-23T00:12:10.634Z,0
2016-11-23T00:12:49.466Z,0
2016-11-23T00:13:28.305Z,0
2016-11-23T00:14:07.140Z,0
2016-11-23T00:14:45.966Z,0
2016-11-23T00:15:24.799Z,0
2016-11-23T00:16:03.633Z,0
2016-11-23T00:16:42.465Z,0
2016-11-23T00:17:21.297Z,0
2016-11-23T00:18:00.129Z,0
2016-11-23T00:18:38.964Z,0
2016-11-23T00:19:17.795Z,0
2016-11-23T00:19:56.622Z,0
2016-11-23T00:20:35.451Z,0
2016-11-23T00:21:14.892Z,0
2016-11-23T00:21:53.725Z,0
2016-11-23T00:22:32.562Z,0
2016-11-23T00:23:11.390Z,0
2016-11-23T00:23:50.228Z,0
2016-11-23T00:24:29.060Z,0
2016-11-23T00:25:07.927Z,0
2016-11-23T00:25:46.755Z,0
2016-11-23T00:26:25.587Z,0
2016-11-23T00:27:04.416Z,0
2016-11-23T00:27:43.251Z,0
2016-11-23T00:28:22.082Z,0
2016-11-23T00:29:00.915Z,0
2016-11-23T00:29:39.746Z,0
2016-11-23T00:30:18.574Z,0
2016-11-23T00:30:57.412Z,0
2016-11-23T00:31:36.279Z,0
2016-11-23T00:32:15.108Z,0
2016-11-23T00:32:53.955Z,0
2016-11-23T00:33:32.781Z,0
2016-11-23T00:34:11.617Z,0
2016-11-23T00:34:50.455Z,0
2016-11-23T00:35:29.280Z,0
2016-11-23T00:36:08.116Z,0
2016-11-23T00:36:46.943Z,0
2016-11-23T00:37:25.773Z,0
2016-11-23T00:38:04.614Z,0
2016-11-23T00:38:43.449Z,0
2016-11-23T00:39:22.283Z,0
2016-11-23T00:40:01.110Z,0
2016-11-23T00:40:40.295Z,0
2016-11-23T00:41:19.122Z,0
2016-11-23T00:41:57.951Z,0
2016-11-23T00:42:36.783Z,0
2016-11-23T00:43:15.616Z,0
2016-11-23T00:43:54.443Z,0
2016-11-23T00:44:33.275Z,0
2016-11-23T00:45:12.141Z,0
2016-11-23T00:45:50.971Z,0
2016-11-23T00:46:29.849Z,0
2016-11-23T00:47:08.678Z,0
2016-11-23T00:47:47.511Z,0
2016-11-23T00:48:26.339Z,0
2016-11-23T00:49:05.174Z,0
2016-11-23T00:49:44.002Z,0
2016-11-23T00:50:22.833Z,0
2016-11-23T00:51:01.666Z,0
2016-11-23T00:51:40.499Z,0
2016-11-23T00:52:19.332Z,0
2016-11-23T00:52:58.164Z,0
2016-11-23T00:53:36.997Z,0
2016-11-23T00:54:15.839Z,0
2016-11-23T00:54:54.666Z,0
2016-11-23T00:55:33.494Z,0
2016-11-23T00:56:12.326Z,0
2016-11-23T00:56:51.163Z,0
2016-11-23T00:57:30.037Z,0
2016-11-23T00:58:08.869Z,0
2016-11-23T00:58:47.694Z,0
2016-11-23T00:59:26.529Z,0
2016-11-23T01:00:05.363Z,0
2016-11-23T01:00:44.191Z,0
2016-11-23T01:01:23.021Z,0
2016-11-23T01:02:01.854Z,0
2016-11-23T01:02:40.687Z,0
2016-11-23T01:03:19.514Z,0
2016-11-23T01:03:58.344Z,0
2016-11-23T01:04:37.174Z,0
2016-11-23T01:05:15.998Z,0
2016-11-23T01:05:54.836Z,0
2016-11-23T01:06:33.666Z,0
2016-11-23T01:07:12.502Z,0
2016-11-23T01:07:51.331Z,0
2016-11-23T01:08:30.185Z,0
2016-11-23T01:09:09.024Z,0
2016-11-23T01:09:47.854Z,0
2016-11-23T01:10:26.687Z,0
2016-11-23T01:11:05.524Z,0
2016-11-23T01:11:44.354Z,0
2016-11-23T01:12:23.185Z,0
2016-11-23T01:13:02.014Z,0
2016-11-23T01:13:41.198Z,0
2016-11-23T01:14:20.028Z,0
2016-11-23T01:14:58.859Z,0
2016-11-23T01:15:37.694Z,0
2016-11-23T01:16:16.544Z,0
2016-11-23T01:16:55.398Z,0
2016-11-23T01:17:34.231Z,0
2016-11-23T01:18:13.101Z,0
2016-11-23T01:18:51.938Z,0
2016-11-23T01:19:30.772Z,0
2016-11-23T01:20:09.610Z,0
2016-11-23T01:20:48.448Z,0
2016-11-23T01:21:27.282Z,0
2016-11-23T01:22:06.115Z,0
2016-11-23T01:22:44.945Z,0
2016-11-23T01:23:23.782Z,0
2016-11-23T01:24:02.611Z,0
2016-11-23T01:24:41.446Z,0
2016-11-23T01:25:20.274Z,0
2016-11-23T01:25:59.106Z,0
2016-11-23T01:26:37.938Z,0
2016-11-23T01:27:16.770Z,0
2016-11-23T01:27:55.600Z,0
2016-11-23T01:28:34.430Z,0
2016-11-23T01:29:13.267Z,0
2016-11-23T01:29:52.099Z,0
2016-11-23T01:30:30.933Z,0
2016-11-23T01:31:09.765Z,0
2016-11-23T01:31:48.593Z,0
2016-11-23T01:32:27.424Z,0
2016-11-23T01:33:06.610Z,0
2016-11-23T01:33:45.440Z,0
2016-11-23T01:34:24.274Z,0
2016-11-23T01:35:03.108Z,0
2016-11-23T01:35:41.946Z,0
2016-11-23T01:36:20.774Z,0
2016-11-23T01:36:59.600Z,0
2016-11-23T01:37:38.430Z,0
2016-11-23T01:38:17.261Z,0
2016-11-23T01:38:56.097Z,0
2016-11-23T01:39:34.943Z,0
2016-11-23T01:40:13.774Z,0
2016-11-23T01:40:52.959Z,0
2016-11-23T01:41:31.787Z,0
2016-11-23T01:42:10.697Z,0
2016-11-23T01:42:49.591Z,0
2016-11-23T01:43:28.422Z,0
2016-11-23T01:44:07.260Z,0
2016-11-23T01:44:46.089Z,0
2016-11-23T01:45:24.942Z,0
2016-11-23T01:46:03.773Z,0
2016-11-23T01:46:42.597Z,0
2016-11-23T01:47:21.430Z,0
2016-11-23T01:48:00.258Z,0
2016-11-23T01:48:39.090Z,0
2016-11-23T01:49:17.919Z,0
2016-11-23T01:49:56.747Z,0
2016-11-23T01:50:35.576Z,0
2016-11-23T01:51:14.408Z,0
2016-11-23T01:51:53.237Z,0
2016-11-23T01:52:32.068Z,0
2016-11-23T01:53:10.931Z,0
2016-11-23T01:53:49.757Z,0
2016-11-23T01:54:28.587Z,0
2016-11-23T01:55:07.427Z,0
2016-11-23T01:55:46.262Z,0
2016-11-23T01:56:25.093Z,0
2016-11-23T01:57:03.925Z,0
2016-11-23T01:57:42.766Z,0
2016-11-23T01:58:21.595Z,0
2016-11-23T01:59:00.418Z,0
2016-11-23T01:59:39.251Z,0
2016-11-23T02:00:18.083Z,0
2016-11-23T02:00:56.920Z,0
2016-11-23T02:01:35.750Z,0
2016-11-23T02:02:14.613Z,0
2016-11-23T02:02:53.443Z,0
2016-11-23T02:03:32.268Z,0
2016-11-23T02:04:11.102Z,0
2016-11-23T02:04:49.928Z,0
2016-11-23T02:05:28.759Z,0
2016-11-23T02:06:07.591Z,0
2016-11-23T02:06:46.431Z,0
2016-11-23T02:07:25.261Z,0
2016-11-23T02:08:04.127Z,0
2016-11-23T02:08:42.988Z,0
2016-11-23T02:09:21.816Z,0
2016-11-23T02:10:01.001Z,0
2016-11-23T02:10:39.831Z,0
2016-11-23T02:11:18.661Z,0
2016-11-23T02:11:57.491Z,0
2016-11-23T02:12:36.322Z,0
2016-11-23T02:13:15.157Z,0
2016-11-23T02:13:53.985Z,0
2016-11-23T02:14:32.815Z,0
2016-11-23T02:15:11.654Z,0
2016-11-23T02:15:50.495Z,0
2016-11-23T02:16:29.352Z,0
2016-11-23T02:17:08.184Z,0
2016-11-23T02:17:47.016Z,0
2016-11-23T02:18:25.845Z,0
2016-11-23T02:19:04.674Z,0
2016-11-23T02:19:43.504Z,0
2016-11-23T02:20:22.339Z,0
2016-11-23T02:21:01.208Z,0
2016-11-23T02:21:40.037Z,0
2016-11-23T02:22:18.869Z,0
2016-11-23T02:22:57.707Z,0
2016-11-23T02:23:36.536Z,0
2016-11-23T02:24:15.364Z,0
2016-11-23T02:24:54.211Z,0
2016-11-23T02:25:33.049Z,0
2016-11-23T02:26:11.884Z,0
2016-11-23T02:26:50.717Z,0
2016-11-23T02:27:29.546Z,0
2016-11-23T02:28:08.381Z,0
2016-11-23T02:28:47.215Z,0
2016-11-23T02:29:26.045Z,0
2016-11-23T02:30:04.878Z,0
2016-11-23T02:30:43.710Z,0
2016-11-23T02:31:22.556Z,0
2016-11-23T02:32:01.394Z,0
2016-11-23T02:32:40.225Z,0
2016-11-23T02:33:19.055Z,0
2016-11-23T02:33:57.889Z,0
2016-11-23T02:34:36.721Z,0
2016-11-23T02:35:15.556Z,0
2016-11-23T02:35:54.386Z,0
2016-11-23T02:36:33.220Z,0
2016-11-23T02:37:12.406Z,0
2016-11-23T02:37:51.235Z,0
2016-11-23T02:38:30.455Z,0
2016-11-23T02:39:09.287Z,0
2016-11-23T02:39:48.115Z,0
2016-11-23T02:40:26.952Z,0
2016-11-23T02:41:05.782Z,0
2016-11-23T02:41:44.608Z,0
2016-11-23T02:42:23.443Z,0
2016-11-23T02:43:02.273Z,0
2016-11-23T02:43:41.106Z,0
2016-11-23T02:44:19.934Z,0
2016-11-23T02:44:58.795Z,0
2016-11-23T02:45:37.623Z,0
2016-11-23T02:46:19.481Z,0
2016-11-23T02:46:58.343Z,0
2016-11-23T02:47:37.532Z,0
2016-11-23T02:48:16.362Z,0
2016-11-23T02:48:55.190Z,0
2016-11-23T02:49:34.024Z,0
2016-11-23T02:50:12.854Z,0
2016-11-23T02:50:51.684Z,0
2016-11-23T02:51:30.543Z,0
2016-11-23T02:52:09.376Z,0
2016-11-23T02:52:48.203Z,0
2016-11-23T02:53:27.035Z,0
2016-11-23T02:54:05.867Z,0
2016-11-23T02:54:44.692Z,0
2016-11-23T02:55:23.528Z,0
2016-11-23T02:56:02.355Z,0
2016-11-23T02:56:41.214Z,0
2016-11-23T02:57:20.049Z,0
2016-11-23T02:57:58.879Z,0
2016-11-23T02:58:37.708Z,0
2016-11-23T02:59:16.913Z,0
2016-11-23T02:59:55.739Z,0
2016-11-23T03:00:34.575Z,0
2016-11-23T03:01:13.410Z,0
2016-11-23T03:01:52.241Z,0
2016-11-23T03:02:31.427Z,0
2016-11-23T03:03:10.256Z,0
2016-11-23T03:03:49.080Z,0
2016-11-23T03:04:27.906Z,0
2016-11-23T03:05:06.736Z,0
2016-11-23T03:05:45.566Z,0
2016-11-23T03:06:24.390Z,0
2016-11-23T03:07:03.220Z,0
2016-11-23T03:07:42.047Z,0
2016-11-23T03:08:20.876Z,0
2016-11-23T03:08:59.741Z,0
2016-11-23T03:09:38.575Z,0
2016-11-23T03:10:17.402Z,0
2016-11-23T03:10:56.230Z,0
2016-11-23T03:11:35.054Z,0
2016-11-23T03:12:13.884Z,0
2016-11-23T03:12:52.715Z,0
2016-11-23T03:13:31.546Z,0
2016-11-23T03:14:10.378Z,0
2016-11-23T03:14:49.213Z,0
2016-11-23T03:15:28.041Z,0
2016-11-23T03:16:06.872Z,0
2016-11-23T03:16:45.696Z,0
2016-11-23T03:17:24.529Z,0
2016-11-23T03:18:03.357Z,0
2016-11-23T03:18:42.187Z,0
2016-11-23T03:19:21.016Z,0
2016-11-23T03:19:59.882Z,0
2016-11-23T03:20:38.717Z,0
2016-11-23T03:21:17.544Z,0
2016-11-23T03:21:56.400Z,0
2016-11-23T03:22:35.263Z,0
2016-11-23T03:23:14.131Z,0
2016-11-23T03:23:52.967Z,0
2016-11-23T03:24:31.793Z,0
2016-11-23T03:25:10.660Z,0
2016-11-23T03:25:49.498Z,0
2016-11-23T03:26:28.329Z,0
2016-11-23T03:27:07.162Z,0
2016-11-23T03:27:45.990Z,0
2016-11-23T03:28:24.819Z,0
2016-11-23T03:29:03.665Z,0
2016-11-23T03:29:42.495Z,0
2016-11-23T03:30:21.323Z,0
2016-11-23T03:31:00.149Z,0
2016-11-23T03:31:38.977Z,0
2016-11-23T03:32:17.807Z,0
2016-11-23T03:32:56.638Z,0
2016-11-23T03:33:35.465Z,0
2016-11-23T03:34:14.296Z,0
2016-11-23T03:34:53.124Z,0
2016-11-23T03:35:31.956Z,0
2016-11-23T03:36:10.785Z,0
2016-11-23T03:36:49.641Z,0
2016-11-23T03:37:28.503Z,0
2016-11-23T03:38:07.387Z,0
2016-11-23T03:38:46.220Z,0
2016-11-23T03:39:25.052Z,0
2016-11-23T03:40:03.881Z,0
2016-11-23T03:40:42.719Z,0
2016-11-23T03:41:21.555Z,0
2016-11-23T03:42:00.384Z,0
2016-11-23T03:42:39.217Z,0
2016-11-23T03:43:18.049Z,0
2016-11-23T03:43:56.875Z,0
2016-11-23T03:44:35.704Z,0
2016-11-23T03:45:14.889Z,0
2016-11-23T03:45:53.720Z,0
2016-11-23T03:46:32.901Z,0
2016-11-23T03:47:11.734Z,0
2016-11-23T03:47:50.563Z,0
2016-11-23T03:48:29.391Z,0
2016-11-23T03:49:08.222Z,0
2016-11-23T03:49:47.054Z,0
2016-11-23T03:50:25.895Z,0
2016-11-23T03:51:04.728Z,0
2016-11-23T03:51:43.567Z,0
2016-11-23T03:52:22.397Z,0
2016-11-23T03:53:01.226Z,0
2016-11-23T03:53:40.057Z,0
2016-11-23T03:54:18.888Z,0
2016-11-23T03:54:57.720Z,0
2016-11-23T03:55:36.556Z,0
2016-11-23T03:56:15.388Z,0
2016-11-23T03:56:54.243Z,0
2016-11-23T03:57:33.088Z,0
2016-11-23T03:58:11.929Z,0
2016-11-23T03:58:50.762Z,0
2016-11-23T03:59:29.592Z,0
2016-11-23T04:00:08.420Z,0
2016-11-23T04:00:47.252Z,0
2016-11-23T04:01:26.116Z,0
2016-11-23T04:02:04.977Z,0
2016-11-23T04:02:43.804Z,0
2016-11-23T04:03:22.639Z,0
2016-11-23T04:04:01.468Z,0
2016-11-23T04:04:40.311Z,0
2016-11-23T04:05:19.143Z,0
2016-11-23T04:05:57.969Z,0
2016-11-23T04:06:36.806Z,0
2016-11-23T04:07:15.664Z,0
2016-11-23T04:07:54.492Z,0
2016-11-23T04:08:33.324Z,0
2016-11-23T04:09:12.158Z,0
2016-11-23T04:09:50.995Z,0
2016-11-23T04:10:29.824Z,0
2016-11-23T04:11:08.649Z,0
2016-11-23T04:11:47.479Z,0
2016-11-23T04:12:26.310Z,0
2016-11-23T04:13:05.146Z,0
2016-11-23T04:13:43.978Z,0
2016-11-23T04:14:22.808Z,0
2016-11-23T04:15:01.638Z,0
2016-11-23T04:15:40.472Z,0
2016-11-23T04:16:19.298Z,0
2016-11-23T04:16:58.130Z,0
2016-11-23T04:17:36.964Z,0
2016-11-23T04:18:15.795Z,0
2016-11-23T04:18:54.625Z,0
2016-11-23T04:19:33.452Z,0
2016-11-23T04:20:12.319Z,0
2016-11-23T04:20:51.148Z,0
2016-11-23T04:21:30.337Z,0
2016-11-23T04:22:09.161Z,0
2016-11-23T04:22:47.993Z,0
2016-11-23T04:23:26.821Z,0
2016-11-23T04:24:05.648Z,0
2016-11-23T04:24:44.474Z,0
2016-11-23T04:25:23.302Z,0
2016-11-23T04:26:02.129Z,0
2016-11-23T04:26:40.962Z,0
2016-11-23T04:27:19.787Z,0
2016-11-23T04:27:58.647Z,0
2016-11-23T04:28:37.475Z,0
2016-11-23T04:29:16.301Z,0
2016-11-23T04:29:55.127Z,0
2016-11-23T04:30:33.962Z,0
2016-11-23T04:31:12.793Z,0
2016-11-23T04:31:51.626Z,0
2016-11-23T04:32:30.454Z,0
2016-11-23T04:33:09.282Z,0
2016-11-23T04:33:48.114Z,0
2016-11-23T04:34:26.942Z,0
2016-11-23T04:35:05.778Z,0
2016-11-23T04:35:44.610Z,0
2016-11-23T04:36:23.441Z,0
2016-11-23T04:37:02.304Z,0
2016-11-23T04:37:41.133Z,0
2016-11-23T04:38:19.967Z,0
2016-11-23T04:38:58.792Z,0
2016-11-23T04:39:37.623Z,0
2016-11-23T04:40:16.450Z,0
2016-11-23T04:40:55.280Z,0
2016-11-23T04:41:34.113Z,0
2016-11-23T04:42:12.945Z,0
2016-11-23T04:42:51.790Z,0
2016-11-23T04:43:30.622Z,0
2016-11-23T04:44:09.812Z,0
2016-11-23T04:44:48.637Z,0
2016-11-23T04:45:27.468Z,0
2016-11-23T04:46:06.297Z,0
2016-11-23T04:46:45.128Z,0
2016-11-23T04:47:23.955Z,0
2016-11-23T04:48:02.785Z,0
2016-11-23T04:48:41.614Z,0
2016-11-23T04:49:20.443Z,0
2016-11-23T04:49:59.268Z,0
2016-11-23T04:50:38.104Z,0
2016-11-23T04:51:16.930Z,0
2016-11-23T04:51:55.791Z,0
2016-11-23T04:52:34.616Z,0
2016-11-23T04:53:13.446Z,0
2016-11-23T04:53:52.271Z,0
2016-11-23T04:54:31.096Z,0
2016-11-23T04:55:09.927Z,0
2016-11-23T04:55:48.753Z,0
2016-11-23T04:56:27.610Z,0
2016-11-23T04:57:06.440Z,0
2016-11-23T04:57:45.270Z,0
2016-11-23T04:58:24.095Z,0
2016-11-23T04:59:02.921Z,0
2016-11-23T04:59:41.746Z,0
2016-11-23T05:00:20.574Z,0
2016-11-23T05:00:59.405Z,0
2016-11-23T05:01:38.243Z,0
2016-11-23T05:02:17.070Z,0
2016-11-23T05:02:55.900Z,0
2016-11-23T05:03:34.737Z,0
2016-11-23T05:04:13.567Z,0
2016-11-23T05:04:52.394Z,0
2016-11-23T05:05:31.223Z,0
2016-11-23T05:06:10.053Z,0
2016-11-23T05:06:48.885Z,0
2016-11-23T05:07:27.711Z,0
2016-11-23T05:08:06.542Z,0
2016-11-23T05:08:45.369Z,0
2016-11-23T05:09:24.201Z,0
2016-11-23T05:10:03.035Z,0
2016-11-23T05:10:41.892Z,0
2016-11-23T05:11:20.721Z,0
2016-11-23T05:11:59.558Z,0
2016-11-23T05:12:38.387Z,0
2016-11-23T05:13:17.215Z,0
2016-11-23T05:13:56.079Z,0
2016-11-23T05:14:34.909Z,0
2016-11-23T05:15:13.737Z,0
2016-11-23T05:15:52.565Z,0
2016-11-23T05:16:31.396Z,0
2016-11-23T05:17:10.580Z,0
2016-11-23T05:17:49.414Z,0
2016-11-23T05:18:28.251Z,0
2016-11-23T05:19:07.089Z,0
2016-11-23T05:19:45.914Z,0
2016-11-23T05:20:24.748Z,0
2016-11-23T05:21:03.576Z,0
2016-11-23T05:21:42.406Z,0
2016-11-23T05:22:21.242Z,0
2016-11-23T05:23:00.068Z,0
2016-11-23T05:23:38.915Z,0
2016-11-23T05:24:17.747Z,0
2016-11-23T05:24:56.579Z,0
2016-11-23T05:25:35.410Z,0
2016-11-23T05:26:14.236Z,0
2016-11-23T05:26:53.070Z,0
2016-11-23T05:27:32.052Z,0
2016-11-23T05:28:10.887Z,0
2016-11-23T05:28:49.749Z,0
2016-11-23T05:29:28.579Z,0
2016-11-23T05:30:07.411Z,0
2016-11-23T05:30:46.241Z,0
2016-11-23T05:31:25.072Z,0
2016-11-23T05:32:03.898Z,0
2016-11-23T05:32:42.731Z,0
2016-11-23T05:33:21.564Z,0
2016-11-23T05:34:00.393Z,0
2016-11-23T05:34:39.223Z,0
2016-11-23T05:35:18.058Z,0
2016-11-23T05:35:56.898Z,0
2016-11-23T05:36:35.726Z,0
2016-11-23T05:37:14.560Z,0
2016-11-23T05:37:53.400Z,0
2016-11-23T05:38:32.229Z,0
2016-11-23T05:39:11.085Z,0
2016-11-23T05:39:49.919Z,0
2016-11-23T05:40:28.751Z,0
2016-11-23T05:41:07.578Z,0
2016-11-23T05:41:46.405Z,0
2016-11-23T05:42:25.235Z,0
2016-11-23T05:43:04.064Z,0
2016-11-23T05:43:42.895Z,0
2016-11-23T05:44:21.725Z,0
2016-11-23T05:45:00.553Z,0
2016-11-23T05:45:39.388Z,0
2016-11-23T05:46:18.216Z,0
2016-11-23T05:46:57.046Z,0
2016-11-23T05:47:35.871Z,0
2016-11-23T05:48:14.697Z,0
2016-11-23T05:48:53.534Z,0
2016-11-23T05:49:32.366Z,0
2016-11-23T05:50:11.197Z,0
2016-11-23T05:50:50.051Z,0
2016-11-23T05:51:28.878Z,0
2016-11-23T05:52:07.715Z,0
2016-11-23T05:52:46.545Z,0
2016-11-23T05:53:25.404Z,0
2016-11-23T05:54:04.358Z,0
2016-11-23T05:54:43.292Z,0
2016-11-23T05:55:22.153Z,0
2016-11-23T05:56:00.984Z,0
2016-11-23T05:56:39.815Z,0
2016-11-23T05:57:18.660Z,0
2016-11-23T05:57:57.513Z,0
2016-11-23T05:58:36.336Z,0
2016-11-23T05:59:15.170Z,0
2016-11-23T05:59:53.994Z,0
2016-11-23T06:00:32.822Z,0
2016-11-23T06:01:11.655Z,0
2016-11-23T06:01:50.489Z,0
2016-11-23T06:02:29.320Z,0
2016-11-23T06:03:08.189Z,0
2016-11-23T06:03:47.021Z,0
2016-11-23T06:04:25.851Z,0
2016-11-23T06:05:04.680Z,0
2016-11-23T06:05:43.519Z,0
2016-11-23T06:06:22.703Z,0
2016-11-23T06:07:01.531Z,0
2016-11-23T06:07:40.360Z,0
2016-11-23T06:08:19.190Z,0
2016-11-23T06:08:58.023Z,0
2016-11-23T06:09:36.851Z,0
2016-11-23T06:10:15.678Z,0
2016-11-23T06:10:54.507Z,0
2016-11-23T06:11:33.344Z,0
2016-11-23T06:12:12.172Z,0
2016-11-23T06:12:51.002Z,0
2016-11-23T06:13:29.830Z,0
2016-11-23T06:14:08.664Z,0
2016-11-23T06:14:47.489Z,0
2016-11-23T06:15:26.326Z,0
2016-11-23T06:16:05.159Z,0
2016-11-23T06:16:43.986Z,0
2016-11-23T06:17:22.818Z,0
2016-11-23T06:18:01.647Z,0
2016-11-23T06:18:40.479Z,0
2016-11-23T06:19:19.309Z,0
2016-11-23T06:19:58.496Z,0
2016-11-23T06:20:37.345Z,0
2016-11-23T06:21:16.172Z,0
2016-11-23T06:21:54.999Z,0
2016-11-23T06:22:33.831Z,0
2016-11-23T06:23:12.661Z,0
2016-11-23T06:23:51.488Z,0
2016-11-23T06:24:30.315Z,0
2016-11-23T06:25:09.147Z,0
2016-11-23T06:25:47.981Z,0
2016-11-23T06:26:26.807Z,0
2016-11-23T06:27:05.633Z,0
2016-11-23T06:27:44.461Z,0
2016-11-23T06:28:23.288Z,0
2016-11-23T06:29:02.117Z,0
2016-11-23T06:29:40.949Z,0
2016-11-23T06:30:19.776Z,0
2016-11-23T06:30:58.611Z,4
2016-11-23T06:31:37.443Z,4
2016-11-23T06:32:16.273Z,4
2016-11-23T06:32:55.137Z,4
2016-11-23T06:33:33.967Z,0
2016-11-23T06:34:12.797Z,0
2016-11-23T06:34:51.626Z,0
2016-11-23T06:35:30.457Z,4
2016-11-23T06:36:09.284Z,4
2016-11-23T06:36:48.110Z,4
2016-11-23T06:37:26.938Z,0
2016-11-23T06:38:05.764Z,4
2016-11-23T06:38:44.626Z,4
2016-11-23T06:39:23.457Z,4
2016-11-23T06:40:02.297Z,4
2016-11-23T06:40:41.154Z,4
2016-11-23T06:41:19.984Z,8
2016-11-23T06:41:58.809Z,4
2016-11-23T06:42:37.644Z,8
2016-11-23T06:43:16.478Z,8
2016-11-23T06:43:55.307Z,8
2016-11-23T06:44:34.135Z,8
2016-11-23T06:45:13.078Z,12
2016-11-23T06:45:52.271Z,12
2016-11-23T06:46:31.103Z,12
2016-11-23T06:47:09.938Z,12
2016-11-23T06:47:48.771Z,12
2016-11-23T06:48:27.599Z,16
2016-11-23T06:49:06.425Z,16
2016-11-23T06:49:45.250Z,20
2016-11-23T06:50:24.073Z,20
2016-11-23T06:51:02.903Z,24
2016-11-23T06:51:41.730Z,28
2016-11-23T06:52:20.568Z,28
2016-11-23T06:52:59.393Z,32
2016-11-23T06:53:38.223Z,32
2016-11-23T06:54:17.050Z,36
2016-11-23T06:54:55.882Z,36
2016-11-23T06:55:34.714Z,40
2016-11-23T06:56:13.539Z,44
2016-11-23T06:56:52.405Z,44
2016-11-23T06:57:31.238Z,48
2016-11-23T06:58:10.075Z,48
2016-11-23T06:58:48.915Z,48
2016-11-23T06:59:27.745Z,56
2016-11-23T07:00:06.843Z,56
2016-11-23T07:00:45.803Z,60
2016-11-23T07:01:25.456Z,64
2016-11-23T07:02:04.311Z,64
2016-11-23T07:02:43.141Z,68
2016-11-23T07:03:21.972Z,72
2016-11-23T07:04:00.802Z,76
2016-11-23T07:04:39.637Z,80
2016-11-23T07:05:18.477Z,80
2016-11-23T07:05:57.311Z,88
2016-11-23T07:06:36.143Z,92
2016-11-23T07:07:14.973Z,96
2016-11-23T07:07:53.801Z,100
2016-11-23T07:08:32.629Z,108
2016-11-23T07:09:11.469Z,116
2016-11-23T07:09:50.301Z,120
2016-11-23T07:10:29.137Z,124
2016-11-23T07:11:08.144Z,132
2016-11-23T07:11:47.399Z,140
2016-11-23T07:12:26.233Z,144
2016-11-23T07:13:05.063Z,152
2016-11-23T07:13:43.898Z,156
2016-11-23T07:14:22.731Z,160
2016-11-23T07:15:01.560Z,172
2016-11-23T07:15:40.391Z,176
2016-11-23T07:16:19.219Z,184
2016-11-23T07:16:58.052Z,192
2016-11-23T07:17:36.884Z,196
2016-11-23T07:18:15.720Z,204
2016-11-23T07:18:54.583Z,216
2016-11-23T07:19:33.418Z,220
2016-11-23T07:20:12.251Z,228
2016-11-23T07:20:51.079Z,236
2016-11-23T07:21:29.908Z,248
2016-11-23T07:22:08.738Z,260
2016-11-23T07:22:47.574Z,268
2016-11-23T07:23:26.403Z,276
2016-11-23T07:24:05.232Z,288
2016-11-23T07:24:44.072Z,300
2016-11-23T07:25:22.948Z,312
2016-11-23T07:26:01.776Z,320
2016-11-23T07:26:40.649Z,328
2016-11-23T07:27:19.481Z,344
2016-11-23T07:27:58.315Z,352
2016-11-23T07:28:37.140Z,364
2016-11-23T07:29:15.973Z,372
2016-11-23T07:29:54.806Z,380
2016-11-23T07:30:33.660Z,388
2016-11-23T07:31:12.501Z,396
2016-11-23T07:31:51.331Z,404
2016-11-23T07:32:30.161Z,416
2016-11-23T07:33:09.003Z,424
2016-11-23T07:33:47.830Z,432
2016-11-23T07:34:26.663Z,440
2016-11-23T07:35:05.526Z,452
2016-11-23T07:35:44.356Z,460
2016-11-23T07:36:23.185Z,472
2016-11-23T07:37:02.016Z,484
2016-11-23T07:37:40.894Z,488
2016-11-23T07:38:19.732Z,492
2016-11-23T07:38:58.920Z,500
2016-11-23T07:39:37.785Z,500
2016-11-23T07:40:16.616Z,508
2016-11-23T07:40:55.446Z,508
2016-11-23T07:41:34.278Z,512
2016-11-23T07:42:13.105Z,512
2016-11-23T07:42:51.935Z,512
2016-11-23T07:43:30.793Z,520
2016-11-23T07:44:09.626Z,520
2016-11-23T07:44:48.456Z,524
2016-11-23T07:45:27.283Z,532
2016-11-23T07:46:06.124Z,536
2016-11-23T07:46:44.951Z,540
2016-11-23T07:47:23.777Z,544
2016-11-23T07:48:02.606Z,544
2016-11-23T07:48:41.440Z,552
2016-11-23T07:49:20.271Z,556
2016-11-23T07:49:59.100Z,556
2016-11-23T07:50:37.930Z,560
2016-11-23T07:51:16.761Z,560
2016-11-23T07:51:55.586Z,560
2016-11-23T07:52:34.414Z,564
2016-11-23T07:53:13.242Z,568
2016-11-23T07:53:52.069Z,572
2016-11-23T07:54:30.908Z,576
2016-11-23T07:55:09.735Z,580
2016-11-23T07:55:48.570Z,588
2016-11-23T07:56:27.404Z,600
2016-11-23T07:57:06.234Z,608
2016-11-23T07:57:45.076Z,624
2016-11-23T07:58:23.936Z,640
2016-11-23T07:59:02.764Z,660
2016-11-23T07:59:41.631Z,680
2016-11-23T08:00:20.457Z,704
2016-11-23T08:00:59.285Z,728
2016-11-23T08:01:38.114Z,752
2016-11-23T08:02:16.940Z,776
2016-11-23T08:02:55.772Z,804
2016-11-23T08:03:34.630Z,828
2016-11-23T08:04:13.458Z,856
2016-11-23T08:04:52.309Z,880
2016-11-23T08:05:31.136Z,912
2016-11-23T08:06:09.967Z,936
2016-11-23T08:06:48.798Z,956
2016-11-23T08:07:27.625Z,984
2016-11-23T08:08:06.464Z,1004
2016-11-23T08:08:45.291Z,1024
2016-11-23T08:09:24.120Z,1048
2016-11-23T08:10:02.974Z,1068
2016-11-23T08:10:41.803Z,1088
2016-11-23T08:11:20.635Z,1112
2016-11-23T08:11:59.467Z,1132
2016-11-23T08:12:38.298Z,1156
2016-11-23T08:13:17.125Z,1176
2016-11-23T08:13:55.960Z,1200
2016-11-23T08:14:34.790Z,1220
2016-11-23T08:15:13.615Z,1240
2016-11-23T08:15:52.449Z,1264
2016-11-23T08:16:31.274Z,1284
2016-11-23T08:17:10.455Z,1300
2016-11-23T08:17:49.280Z,1320
2016-11-23T08:18:28.118Z,1336
2016-11-23T08:19:06.960Z,1352
2016-11-23T08:19:45.789Z,1376
2016-11-23T08:20:24.615Z,1400
2016-11-23T08:21:03.446Z,1424
2016-11-23T08:21:42.276Z,1448
2016-11-23T08:22:21.101Z,1472
2016-11-23T08:22:59.970Z,1496
2016-11-23T08:23:38.798Z,1520
2016-11-23T08:24:17.626Z,1540
2016-11-23T08:24:56.451Z,1560
2016-11-23T08:25:35.279Z,1580
2016-11-23T08:26:14.105Z,1592
2016-11-23T08:26:52.930Z,1612
2016-11-23T08:27:31.760Z,1628
2016-11-23T08:28:10.593Z,1644
2016-11-23T08:28:49.422Z,1664
2016-11-23T08:29:28.248Z,1680
2016-11-23T08:30:07.096Z,1704
2016-11-23T08:30:45.921Z,1728
2016-11-23T08:31:24.751Z,1752
2016-11-23T08:32:03.612Z,1776
2016-11-23T08:32:42.443Z,1796
2016-11-23T08:33:21.273Z,1812
2016-11-23T08:34:00.105Z,1824
2016-11-23T08:34:38.932Z,1828
2016-11-23T08:35:17.762Z,1832
2016-11-23T08:35:56.592Z,1832
2016-11-23T08:36:35.418Z,1832
2016-11-23T08:37:14.247Z,1836
2016-11-23T08:37:53.085Z,1832
2016-11-23T08:38:31.919Z,1836
2016-11-23T08:39:10.753Z,1840
2016-11-23T08:39:49.587Z,1840
2016-11-23T08:40:28.421Z,1844
2016-11-23T08:41:07.252Z,1848
2016-11-23T08:41:46.465Z,1848
2016-11-23T08:42:25.296Z,1856
2016-11-23T08:43:04.140Z,1864
2016-11-23T08:43:43.002Z,1868
2016-11-23T08:44:21.828Z,1876
2016-11-23T08:45:00.684Z,1880
2016-11-23T08:45:39.513Z,1884
2016-11-23T08:46:18.343Z,1884
2016-11-23T08:46:57.185Z,1892
2016-11-23T08:47:36.038Z,1900
2016-11-23T08:48:14.868Z,1916
2016-11-23T08:48:53.733Z,1936
2016-11-23T08:49:32.568Z,1956
2016-11-23T08:50:11.401Z,1980
2016-11-23T08:50:50.260Z,2000
2016-11-23T08:51:29.087Z,2024
2016-11-23T08:52:07.927Z,2048
2016-11-23T08:52:46.758Z,2076
2016-11-23T08:53:25.631Z,2100
2016-11-23T08:54:04.468Z,2124
2016-11-23T08:54:43.298Z,2148
2016-11-23T08:55:22.127Z,2180
2016-11-23T08:56:00.956Z,2212
2016-11-23T08:56:39.795Z,2244
2016-11-23T08:57:18.625Z,2284
2016-11-23T08:57:57.459Z,2332
2016-11-23T08:58:36.292Z,2376
2016-11-23T08:59:15.151Z,2420
2016-11-23T08:59:53.986Z,2452
2016-11-23T09:00:32.815Z,2472
2016-11-23T09:01:11.638Z,2480
2016-11-23T09:01:50.464Z,2480
2016-11-23T09:02:29.295Z,2472
2016-11-23T09:03:08.125Z,2448
2016-11-23T09:03:46.953Z,2416
2016-11-23T09:04:25.779Z,2384
2016-11-23T09:05:04.608Z,2344
2016-11-23T09:05:43.438Z,2308
2016-11-23T09:06:22.268Z,2268
2016-11-23T09:07:01.101Z,2228
2016-11-23T09:07:39.935Z,2188
2016-11-23T09:08:18.761Z,2152
2016-11-23T09:08:57.591Z,2112
2016-11-23T09:09:36.423Z,2080
2016-11-23T09:10:15.259Z,2056
2016-11-23T09:10:54.084Z,2040
2016-11-23T09:11:32.914Z,2040
2016-11-23T09:12:11.747Z,2044
2016-11-23T09:12:50.600Z,2040
2016-11-23T09:13:29.428Z,2044
2016-11-23T09:14:08.258Z,2104
2016-11-23T09:14:47.092Z,2148
2016-11-23T09:15:25.921Z,2144
2016-11-23T09:16:04.756Z,2172
2016-11-23T09:16:43.584Z,2148
2016-11-23T09:17:22.421Z,2084
2016-11-23T09:18:01.253Z,2052
2016-11-23T09:18:40.087Z,2028
2016-11-23T09:19:18.916Z,2028
2016-11-23T09:19:57.743Z,2028
2016-11-23T09:20:36.576Z,2016
2016-11-23T09:21:15.406Z,2016